Aérodrome :
LOGIN :

S'inscrire | Disclaimer

   EN    FR    IT 

 










Légende :    VFR   VFR Marginal   IFR   IFR Intensif   IFR Très Intensif
Visi : 
Plafond : 
>= 8 km
>= 3000ft
5 à 8 km
1000 à 3000 ft
1500m à 5 km
500 à 1000 ft
800 à 1500m
200 à 500 ft
< 800m
< 200 ft
Symboles :   Orages  Brouillard  Fortes neiges  Fortes précipitations  Vent > 20 kt
SIGMETs :   Divers  Orages  Givrage  Turbulence  Onde Orograph.  Cendres Volcan.






- Altitude de l'aérodrome : 135 ft
- Code IATA : BOJ


LBBG - Burgas

DERNIER METAR :
  • 200800Z 01006KT 270V070 9999 FEW031 SCT048 03/M04 Q1038 NOSIG

METARs EXPIRÉS :
  • 200730Z 36008KT 280V040 9999 FEW049 02/M04 Q1037 NOSIG
  • 200700Z VRB04KT CAVOK 02/M05 Q1037 NOSIG
  • 200630Z 35007KT 290V030 9999 FEW031 02/M05 Q1037 NOSIG
  • 200600Z 36011G22KT 320V050 9999 FEW031 02/M04 Q1036 NOSIG
  • 200530Z 35014KT 320V030 9999 FEW030 03/M04 Q1036 NOSIG

TAF TAF LBBG
Valide du 20 à 06h jusqu'au 21 à 06h UTC


200500Z 2006/2106 36014KT 9999 BKN045
TEMPO 2006/2012 36016G26KT
BECMG 2012/2014 30010KT
BECMG 2018/2020 24008KT



MET'MAP, la Météo Aéronautique d'un coup d'oeil ! - Copyright ORBIFLY Décembre 2007 - Disclaimer

ORBIFLY MET'MAP TEAM :

Programmation & Développement : Alexandra Zaïnal
Sur une idée originale de : Baudouin d'Aumeries
Assistance à la programmation : Marc-Olivier Méhu
Soutien technique & logistique : Manuel Goepfert

Contact : metmap@orbifly.com




SOURCES & CREDITS :

   NOAA